KJST

John Murtha Johnstown-Cambria Co Airport

Johnstown, Pennsylvania, USA
METAR KJST 210454Z AUTO 15010G17KT 3SM BR OVC003 19/18 A3009 RMK AO2 SLP178 T01890183 402060172 TSNO
Observed Flight Rules
Aug-21 @ 04:54 UTC (9 hours ago) Instrument Flight Rules
Wind Visibility Clouds Conditions
150° at 10 knots
 Gusting to 17 knots
3 miles
  • Overcast at 300' AGL
  • Mist
Temperatures Readings
Current 19°C / 66°F
Dewpoint 18°C / 64°F
Humidity 94%
Altimeter 30.09" Hg
Pressure 1017.8 hPa
Elevation 694
METAR KJST 210454Z AUTO 15010G17KT 3SM BR OVC003 19/18 A3009 RMK AO2 SLP178 T01890183 402060172 TSNO
Observed Flight Rules
Aug-21 @ 04:54 UTC
(9 hours ago)
LIFR
Wind Visibility
150° at 10 knots
 Gusting to 17 knots
3 miles
Clouds
  • Overcast at 300' AGL
Conditions
  • Mist
Temperature Dewpoint
19°C / 66°F 18°C / 64°F
Humidity Altimeter Pressure
94% 30.09" Hg 1017.8 hPa